Terminal Aerodrome Forecast
Issued by NWS

Home | Current Version | Previous Version | Text Only | Print | Product List | Glossary On
Versions: 1 2 3 4 5 6 7 8 9 10 11 12 13 14 15 16 17 18
517
FTUS41 KPBZ 271222 AAA
TAFFKL
TAF AMD
KFKL 271222Z 2712/2812 25008G16KT P6SM BKN009
     FM271400 27010G18KT P6SM BKN015
     FM271700 28010G18KT P6SM VCSH BKN025
     FM280000 28005KT P6SM SCT050
      AMD LTD TO CLD VIS AND WIND=

USA.gov is the U.S. government's official web portal to all federal, state and local government web resources and services.